sensor_id;sensor_type;location;lat;lon;timestamp;pressure;altitude;pressure_sealevel;temperature;humidity
42169;BME280;27838;43.858;25.974;2023-06-24T00:00:37;100872.03;;;29.20;44.04
42169;BME280;27838;43.858;25.974;2023-06-24T00:03:03;100878.00;;;29.24;43.80
42169;BME280;27838;43.858;25.974;2023-06-24T00:05:33;100870.91;;;29.23;43.85
42169;BME280;27838;43.858;25.974;2023-06-24T00:07:59;100871.75;;;29.23;43.61
42169;BME280;27838;43.858;25.974;2023-06-24T00:10:27;100865.44;;;29.24;43.53
42169;BME280;27838;43.858;25.974;2023-06-24T00:12:54;100862.97;;;29.21;43.76
42169;BME280;27838;43.858;25.974;2023-06-24T00:15:21;100859.97;;;29.13;43.72
42169;BME280;27838;43.858;25.974;2023-06-24T00:17:47;100852.69;;;29.15;43.76
42169;BME280;27838;43.858;25.974;2023-06-24T00:20:15;100853.78;;;29.12;43.76
42169;BME280;27838;43.858;25.974;2023-06-24T00:22:43;100847.66;;;29.10;43.99
42169;BME280;27838;43.858;25.974;2023-06-24T00:25:13;100843.53;;;29.06;44.27
42169;BME280;27838;43.858;25.974;2023-06-24T00:27:41;100838.72;;;28.98;44.33
42169;BME280;27838;43.858;25.974;2023-06-24T00:30:08;100835.53;;;28.93;44.57
42169;BME280;27838;43.858;25.974;2023-06-24T00:32:35;100836.63;;;28.91;44.21
42169;BME280;27838;43.858;25.974;2023-06-24T00:35:02;100835.78;;;28.90;44.00
42169;BME280;27838;43.858;25.974;2023-06-24T00:37:29;100833.31;;;28.87;44.45
42169;BME280;27838;43.858;25.974;2023-06-24T00:39:55;100835.28;;;28.85;44.12
42169;BME280;27838;43.858;25.974;2023-06-24T00:42:22;100833.44;;;28.86;43.80
42169;BME280;27838;43.858;25.974;2023-06-24T00:44:49;100832.72;;;28.84;44.47
42169;BME280;27838;43.858;25.974;2023-06-24T00:47:15;100836.34;;;28.83;44.15
42169;BME280;27838;43.858;25.974;2023-06-24T00:49:42;100837.34;;;28.81;44.27
42169;BME280;27838;43.858;25.974;2023-06-24T00:52:13;100835.31;;;28.72;44.47
42169;BME280;27838;43.858;25.974;2023-06-24T00:54:44;100827.63;;;28.68;44.42
42169;BME280;27838;43.858;25.974;2023-06-24T00:57:12;100830.66;;;28.63;44.44
42169;BME280;27838;43.858;25.974;2023-06-24T00:59:39;100834.28;;;28.62;44.57
42169;BME280;27838;43.858;25.974;2023-06-24T01:02:08;100824.03;;;28.56;44.69
42169;BME280;27838;43.858;25.974;2023-06-24T01:04:36;100822.50;;;28.52;44.78
42169;BME280;27838;43.858;25.974;2023-06-24T01:07:04;100826.16;;;28.51;44.57
42169;BME280;27838;43.858;25.974;2023-06-24T01:09:31;100819.97;;;28.50;44.57
42169;BME280;27838;43.858;25.974;2023-06-24T01:11:58;100832.28;;;28.53;44.25
42169;BME280;27838;43.858;25.974;2023-06-24T01:14:25;100833.22;;;28.52;43.94
42169;BME280;27838;43.858;25.974;2023-06-24T01:16:53;100831.53;;;28.51;44.35
42169;BME280;27838;43.858;25.974;2023-06-24T01:19:51;100835.41;;;28.47;44.21
42169;BME280;27838;43.858;25.974;2023-06-24T01:30:41;100833.50;;;28.36;44.67
42169;BME280;27838;43.858;25.974;2023-06-24T01:33:26;100821.19;;;28.33;44.70
42169;BME280;27838;43.858;25.974;2023-06-24T01:35:57;100823.88;;;28.33;44.89
42169;BME280;27838;43.858;25.974;2023-06-24T01:38:31;100822.88;;;28.34;43.96
42169;BME280;27838;43.858;25.974;2023-06-24T01:40:58;100823.88;;;28.33;43.98
42169;BME280;27838;43.858;25.974;2023-06-24T01:43:27;100832.13;;;28.30;44.19
42169;BME280;27838;43.858;25.974;2023-06-24T01:45:55;100834.81;;;28.30;44.43
42169;BME280;27838;43.858;25.974;2023-06-24T01:48:25;100828.31;;;28.21;43.93
42169;BME280;27838;43.858;25.974;2023-06-24T01:50:59;100830.47;;;28.16;43.60
42169;BME280;27838;43.858;25.974;2023-06-24T01:53:33;100835.91;;;28.15;43.78
42169;BME280;27838;43.858;25.974;2023-06-24T01:56:02;100834.22;;;28.14;43.78
42169;BME280;27838;43.858;25.974;2023-06-24T01:58:31;100828.56;;;28.05;44.29
42169;BME280;27838;43.858;25.974;2023-06-24T02:01:01;100837.13;;;28.11;43.55
42169;BME280;27838;43.858;25.974;2023-06-24T02:03:28;100841.22;;;28.03;43.40
42169;BME280;27838;43.858;25.974;2023-06-24T02:05:56;100839.84;;;27.98;43.69
42169;BME280;27838;43.858;25.974;2023-06-24T02:08:24;100840.91;;;27.95;43.55
42169;BME280;27838;43.858;25.974;2023-06-24T02:10:52;100844.31;;;27.97;43.57
42169;BME280;27838;43.858;25.974;2023-06-24T02:13:20;100854.81;;;28.00;43.89
42169;BME280;27838;43.858;25.974;2023-06-24T02:15:49;100860.72;;;28.05;44.10
42169;BME280;27838;43.858;25.974;2023-06-24T02:18:17;100855.25;;;28.07;44.17
42169;BME280;27838;43.858;25.974;2023-06-24T02:20:46;100860.28;;;28.12;44.01
42169;BME280;27838;43.858;25.974;2023-06-24T02:23:14;100864.34;;;28.17;43.48
42169;BME280;27838;43.858;25.974;2023-06-24T02:25:42;100874.72;;;28.22;43.26
42169;BME280;27838;43.858;25.974;2023-06-24T02:28:09;100878.16;;;28.24;42.96
42169;BME280;27838;43.858;25.974;2023-06-24T02:30:38;100874.50;;;28.25;42.56
42169;BME280;27838;43.858;25.974;2023-06-24T02:33:05;100877.91;;;28.27;42.31
42169;BME280;27838;43.858;25.974;2023-06-24T02:35:32;100877.16;;;28.25;42.54
42169;BME280;27838;43.858;25.974;2023-06-24T02:37:58;100892.72;;;28.33;42.37
42169;BME280;27838;43.858;25.974;2023-06-24T02:40:25;100895.41;;;28.33;42.71
42169;BME280;27838;43.858;25.974;2023-06-24T02:42:53;100901.81;;;28.30;42.81
42169;BME280;27838;43.858;25.974;2023-06-24T02:45:20;100907.50;;;28.25;44.11
42169;BME280;27838;43.858;25.974;2023-06-24T02:47:47;100904.44;;;28.19;46.04
42169;BME280;27838;43.858;25.974;2023-06-24T02:50:15;100919.00;;;28.15;47.15
42169;BME280;27838;43.858;25.974;2023-06-24T02:52:42;100911.41;;;28.09;47.59
42169;BME280;27838;43.858;25.974;2023-06-24T02:55:10;100906.56;;;28.01;48.10
42169;BME280;27838;43.858;25.974;2023-06-24T02:57:37;100913.75;;;28.00;48.28
42169;BME280;27838;43.858;25.974;2023-06-24T03:00:05;100914.59;;;28.01;48.54
42169;BME280;27838;43.858;25.974;2023-06-24T03:02:34;100905.94;;;27.97;48.46
42169;BME280;27838;43.858;25.974;2023-06-24T03:05:02;100911.53;;;27.94;48.76
42169;BME280;27838;43.858;25.974;2023-06-24T03:07:30;100916.31;;;27.89;49.04
42169;BME280;27838;43.858;25.974;2023-06-24T03:10:01;100924.56;;;27.86;49.43
42169;BME280;27838;43.858;25.974;2023-06-24T03:12:29;100924.22;;;27.78;49.57
42169;BME280;27838;43.858;25.974;2023-06-24T03:14:55;100935.47;;;27.83;49.88
42169;BME280;27838;43.858;25.974;2023-06-24T03:17:22;100935.56;;;27.81;50.19
42169;BME280;27838;43.858;25.974;2023-06-24T03:19:49;100937.81;;;27.75;50.54
42169;BME280;27838;43.858;25.974;2023-06-24T03:22:16;100935.56;;;27.68;50.87
42169;BME280;27838;43.858;25.974;2023-06-24T03:24:43;100945.00;;;27.61;50.74
42169;BME280;27838;43.858;25.974;2023-06-24T03:27:10;100951.50;;;27.57;51.16
42169;BME280;27838;43.858;25.974;2023-06-24T03:29:38;100944.66;;;27.53;51.41
42169;BME280;27838;43.858;25.974;2023-06-24T03:32:05;100948.09;;;27.55;51.92
42169;BME280;27838;43.858;25.974;2023-06-24T03:34:31;100942.72;;;27.55;51.65
42169;BME280;27838;43.858;25.974;2023-06-24T03:36:58;100945.00;;;27.61;51.50
42169;BME280;27838;43.858;25.974;2023-06-24T03:39:25;100955.50;;;27.64;51.38
42169;BME280;27838;43.858;25.974;2023-06-24T03:41:51;100957.00;;;27.68;51.09
42169;BME280;27838;43.858;25.974;2023-06-24T03:44:18;100964.84;;;27.72;50.99
42169;BME280;27838;43.858;25.974;2023-06-24T03:46:45;100948.00;;;27.69;51.23
42169;BME280;27838;43.858;25.974;2023-06-24T03:49:11;100948.44;;;27.76;50.93
42169;BME280;27838;43.858;25.974;2023-06-24T03:51:38;100957.75;;;27.83;51.08
42169;BME280;27838;43.858;25.974;2023-06-24T03:54:04;100969.88;;;27.89;50.94
42169;BME280;27838;43.858;25.974;2023-06-24T03:56:31;100968.63;;;27.95;50.71
42169;BME280;27838;43.858;25.974;2023-06-24T03:58:57;100974.84;;;27.95;49.45
42169;BME280;27838;43.858;25.974;2023-06-24T04:01:24;100976.34;;;27.99;47.80
42169;BME280;27838;43.858;25.974;2023-06-24T04:03:50;100979.69;;;28.03;46.95
42169;BME280;27838;43.858;25.974;2023-06-24T04:06:17;100978.69;;;28.04;46.35
42169;BME280;27838;43.858;25.974;2023-06-24T04:08:44;100974.19;;;28.04;46.37
42169;BME280;27838;43.858;25.974;2023-06-24T04:11:14;100975.06;;;28.05;46.75
42169;BME280;27838;43.858;25.974;2023-06-24T04:13:40;100972.50;;;28.03;46.50
42169;BME280;27838;43.858;25.974;2023-06-24T04:16:07;100976.75;;;28.06;46.03
42169;BME280;27838;43.858;25.974;2023-06-24T04:18:33;100968.63;;;28.08;46.04
42169;BME280;27838;43.858;25.974;2023-06-24T04:21:02;100974.41;;;28.14;47.03
42169;BME280;27838;43.858;25.974;2023-06-24T04:23:28;100967.13;;;28.16;44.97
42169;BME280;27838;43.858;25.974;2023-06-24T04:25:55;100964.53;;;28.15;44.21
42169;BME280;27838;43.858;25.974;2023-06-24T04:28:22;100965.94;;;28.08;44.25
42169;BME280;27838;43.858;25.974;2023-06-24T04:30:48;100954.16;;;28.10;43.77
42169;BME280;27838;43.858;25.974;2023-06-24T04:33:15;100964.53;;;28.15;43.54
42169;BME280;27838;43.858;25.974;2023-06-24T04:35:41;100956.50;;;28.15;43.40
42169;BME280;27838;43.858;25.974;2023-06-24T04:38:08;100964.97;;;28.21;43.51
42169;BME280;27838;43.858;25.974;2023-06-24T04:40:35;100953.63;;;28.18;43.47
42169;BME280;27838;43.858;25.974;2023-06-24T04:43:02;100956.81;;;28.23;43.73
42169;BME280;27838;43.858;25.974;2023-06-24T04:45:29;100966.06;;;28.19;43.26
42169;BME280;27838;43.858;25.974;2023-06-24T04:47:55;100946.22;;;28.21;43.51
42169;BME280;27838;43.858;25.974;2023-06-24T04:50:22;100954.16;;;28.23;43.04
42169;BME280;27838;43.858;25.974;2023-06-24T04:52:54;100957.91;;;28.20;43.50
42169;BME280;27838;43.858;25.974;2023-06-24T04:55:22;100965.81;;;28.22;43.69
42169;BME280;27838;43.858;25.974;2023-06-24T04:57:49;100955.88;;;28.24;43.86
42169;BME280;27838;43.858;25.974;2023-06-24T05:00:15;100963.47;;;28.30;43.49
42169;BME280;27838;43.858;25.974;2023-06-24T05:02:42;100961.31;;;28.35;43.46
42169;BME280;27838;43.858;25.974;2023-06-24T05:05:08;100962.69;;;28.41;43.98
42169;BME280;27838;43.858;25.974;2023-06-24T05:07:35;100958.50;;;28.50;43.55
42169;BME280;27838;43.858;25.974;2023-06-24T05:10:02;100957.88;;;28.59;43.29
42169;BME280;27838;43.858;25.974;2023-06-24T05:12:28;100955.59;;;28.66;42.98
42169;BME280;27838;43.858;25.974;2023-06-24T05:14:55;100954.84;;;28.76;42.89
42169;BME280;27838;43.858;25.974;2023-06-24T05:17:21;100939.69;;;28.75;42.95
42169;BME280;27838;43.858;25.974;2023-06-24T05:19:48;100955.41;;;28.93;42.78
42169;BME280;27838;43.858;25.974;2023-06-24T05:22:14;100953.97;;;29.00;42.36
42169;BME280;27838;43.858;25.974;2023-06-24T05:24:41;100952.53;;;29.07;41.81
42169;BME280;27838;43.858;25.974;2023-06-24T05:27:07;100951.13;;;29.14;42.17
42169;BME280;27838;43.858;25.974;2023-06-24T05:29:34;100945.66;;;29.16;42.33
42169;BME280;27838;43.858;25.974;2023-06-24T05:32:01;100948.03;;;29.21;42.21
42169;BME280;27838;43.858;25.974;2023-06-24T05:34:29;100956.34;;;29.29;41.62
42169;BME280;27838;43.858;25.974;2023-06-24T05:36:56;100951.13;;;29.38;41.75
42169;BME280;27838;43.858;25.974;2023-06-24T05:39:23;100945.53;;;29.42;42.43
42169;BME280;27838;43.858;25.974;2023-06-24T05:41:50;100944.22;;;29.47;42.25
42169;BME280;27838;43.858;25.974;2023-06-24T05:44:16;100950.47;;;29.59;43.66
42169;BME280;27838;43.858;25.974;2023-06-24T05:46:44;100949.03;;;29.66;42.95
42169;BME280;27838;43.858;25.974;2023-06-24T05:49:11;100954.59;;;29.76;42.10
42169;BME280;27838;43.858;25.974;2023-06-24T05:51:38;100948.50;;;29.85;42.15
42169;BME280;27838;43.858;25.974;2023-06-24T05:54:04;100949.94;;;29.89;43.03
42169;BME280;27838;43.858;25.974;2023-06-24T05:56:33;100956.81;;;29.93;43.12
42169;BME280;27838;43.858;25.974;2023-06-24T05:58:59;100949.47;;;29.96;43.55
42169;BME280;27838;43.858;25.974;2023-06-24T06:01:26;100946.19;;;30.03;42.81
42169;BME280;27838;43.858;25.974;2023-06-24T06:03:53;100953.28;;;30.04;42.56
42169;BME280;27838;43.858;25.974;2023-06-24T06:06:19;100949.97;;;30.12;42.36
42169;BME280;27838;43.858;25.974;2023-06-24T06:08:47;100949.13;;;30.11;42.45
42169;BME280;27838;43.858;25.974;2023-06-24T06:11:14;100952.44;;;30.15;42.23
42169;BME280;27838;43.858;25.974;2023-06-24T06:13:40;100963.19;;;30.15;42.32
42169;BME280;27838;43.858;25.974;2023-06-24T06:16:07;100943.75;;;30.11;41.98
42169;BME280;27838;43.858;25.974;2023-06-24T06:18:33;100965.25;;;30.23;41.94
42169;BME280;27838;43.858;25.974;2023-06-24T06:21:00;100962.44;;;30.24;42.11
42169;BME280;27838;43.858;25.974;2023-06-24T06:23:26;100961.22;;;30.28;42.61
42169;BME280;27838;43.858;25.974;2023-06-24T06:25:53;100965.25;;;30.34;42.28
42169;BME280;27838;43.858;25.974;2023-06-24T06:28:19;100971.88;;;30.41;42.31
42169;BME280;27838;43.858;25.974;2023-06-24T06:30:46;100976.91;;;30.46;42.25
42169;BME280;27838;43.858;25.974;2023-06-24T06:33:12;100974.47;;;30.43;41.83
42169;BME280;27838;43.858;25.974;2023-06-24T06:35:39;100972.38;;;30.46;41.96
42169;BME280;27838;43.858;25.974;2023-06-24T06:38:05;100972.75;;;30.53;41.74
42169;BME280;27838;43.858;25.974;2023-06-24T06:40:32;100973.47;;;30.55;41.10
42169;BME280;27838;43.858;25.974;2023-06-24T06:42:58;100975.91;;;30.58;40.99
42169;BME280;27838;43.858;25.974;2023-06-24T06:45:25;100975.66;;;30.61;41.16
42169;BME280;27838;43.858;25.974;2023-06-24T06:47:51;100979.81;;;30.65;41.35
42169;BME280;27838;43.858;25.974;2023-06-24T06:50:18;100979.91;;;30.75;41.25
42169;BME280;27838;43.858;25.974;2023-06-24T06:52:47;100981.75;;;30.86;41.11
42169;BME280;27838;43.858;25.974;2023-06-24T06:55:14;100973.06;;;30.94;40.28
42169;BME280;27838;43.858;25.974;2023-06-24T06:57:40;100978.94;;;30.99;40.45
42169;BME280;27838;43.858;25.974;2023-06-24T07:00:07;100971.44;;;31.02;40.23
42169;BME280;27838;43.858;25.974;2023-06-24T07:02:34;100970.44;;;31.15;40.56
42169;BME280;27838;43.858;25.974;2023-06-24T07:05:00;100969.06;;;31.20;40.29
42169;BME280;27838;43.858;25.974;2023-06-24T07:07:27;100970.84;;;31.31;40.16
42169;BME280;27838;43.858;25.974;2023-06-24T07:09:53;100963.56;;;31.43;40.15
42169;BME280;27838;43.858;25.974;2023-06-24T07:12:20;100963.19;;;31.48;40.01
42169;BME280;27838;43.858;25.974;2023-06-24T07:14:49;100969.81;;;31.55;40.02
42169;BME280;27838;43.858;25.974;2023-06-24T07:17:15;100960.22;;;31.62;39.55
42169;BME280;27838;43.858;25.974;2023-06-24T07:19:42;100963.63;;;31.64;39.66
42169;BME280;27838;43.858;25.974;2023-06-24T07:22:09;100967.25;;;31.74;39.87
42169;BME280;27838;43.858;25.974;2023-06-24T07:24:35;100961.00;;;31.74;39.71
42169;BME280;27838;43.858;25.974;2023-06-24T07:27:02;100958.78;;;31.79;40.48
42169;BME280;27838;43.858;25.974;2023-06-24T07:29:28;100958.22;;;31.85;39.52
42169;BME280;27838;43.858;25.974;2023-06-24T07:31:55;100955.00;;;31.91;39.29
42169;BME280;27838;43.858;25.974;2023-06-24T07:34:21;100946.66;;;31.94;39.54
42169;BME280;27838;43.858;25.974;2023-06-24T07:36:48;100942.56;;;32.00;39.20
42169;BME280;27838;43.858;25.974;2023-06-24T07:39:16;100938.38;;;32.07;39.69
42169;BME280;27838;43.858;25.974;2023-06-24T07:41:43;100939.28;;;32.17;39.57
42169;BME280;27838;43.858;25.974;2023-06-24T07:44:09;100942.69;;;32.20;39.25
42169;BME280;27838;43.858;25.974;2023-06-24T07:46:36;100940.03;;;32.29;38.26
42169;BME280;27838;43.858;25.974;2023-06-24T07:49:02;100931.00;;;32.40;35.25
42169;BME280;27838;43.858;25.974;2023-06-24T07:51:29;100933.56;;;32.51;34.38
42169;BME280;27838;43.858;25.974;2023-06-24T07:53:55;100921.13;;;32.60;34.64
42169;BME280;27838;43.858;25.974;2023-06-24T07:56:22;100920.84;;;32.63;35.04
42169;BME280;27838;43.858;25.974;2023-06-24T07:58:48;100923.41;;;32.65;34.35
42169;BME280;27838;43.858;25.974;2023-06-24T08:01:15;100920.59;;;32.66;33.85
42169;BME280;27838;43.858;25.974;2023-06-24T08:03:41;100928.38;;;32.69;34.41
42169;BME280;27838;43.858;25.974;2023-06-24T08:06:08;100920.03;;;32.82;34.67
42169;BME280;27838;43.858;25.974;2023-06-24T08:08:34;100919.88;;;32.93;34.62
42169;BME280;27838;43.858;25.974;2023-06-24T08:11:02;100918.63;;;33.07;33.41
42169;BME280;27838;43.858;25.974;2023-06-24T08:13:29;100924.19;;;33.16;32.48
42169;BME280;27838;43.858;25.974;2023-06-24T08:15:56;100928.16;;;33.21;32.57
42169;BME280;27838;43.858;25.974;2023-06-24T08:18:22;100929.31;;;33.28;32.41
42169;BME280;27838;43.858;25.974;2023-06-24T08:20:49;100928.59;;;33.36;32.23
42169;BME280;27838;43.858;25.974;2023-06-24T08:23:15;100928.16;;;33.41;30.58
42169;BME280;27838;43.858;25.974;2023-06-24T08:25:42;100924.75;;;33.48;31.29
42169;BME280;27838;43.858;25.974;2023-06-24T08:28:08;100925.31;;;33.52;31.08
42169;BME280;27838;43.858;25.974;2023-06-24T08:30:35;100927.13;;;33.61;31.05
42169;BME280;27838;43.858;25.974;2023-06-24T08:33:01;100925.84;;;33.65;30.67
42169;BME280;27838;43.858;25.974;2023-06-24T08:35:28;100931.69;;;33.71;30.72
42169;BME280;27838;43.858;25.974;2023-06-24T08:37:54;100917.19;;;33.72;29.71
42169;BME280;27838;43.858;25.974;2023-06-24T08:40:21;100925.09;;;33.83;30.06
42169;BME280;27838;43.858;25.974;2023-06-24T08:42:47;100921.97;;;33.88;29.83
42169;BME280;27838;43.858;25.974;2023-06-24T08:45:14;100921.41;;;33.94;29.00
42169;BME280;27838;43.858;25.974;2023-06-24T08:47:41;100907.41;;;33.98;28.45
42169;BME280;27838;43.858;25.974;2023-06-24T08:50:11;100909.06;;;34.09;28.12
42169;BME280;27838;43.858;25.974;2023-06-24T08:52:45;100907.94;;;34.12;27.10
42169;BME280;27838;43.858;25.974;2023-06-24T08:55:16;100903.91;;;34.16;27.62
42169;BME280;27838;43.858;25.974;2023-06-24T08:57:43;100893.09;;;34.16;26.91
42169;BME280;27838;43.858;25.974;2023-06-24T09:00:10;100899.22;;;34.18;26.40
42169;BME280;27838;43.858;25.974;2023-06-24T09:02:37;100892.25;;;34.25;26.25
42169;BME280;27838;43.858;25.974;2023-06-24T09:05:07;100906.41;;;34.37;26.00
42169;BME280;27838;43.858;25.974;2023-06-24T09:07:34;100905.28;;;34.39;23.89
42169;BME280;27838;43.858;25.974;2023-06-24T09:10:01;100901.53;;;34.40;24.26
42169;BME280;27838;43.858;25.974;2023-06-24T09:12:31;100895.53;;;34.47;24.20
42169;BME280;27838;43.858;25.974;2023-06-24T09:14:58;100895.31;;;34.58;24.71
42169;BME280;27838;43.858;25.974;2023-06-24T09:17:25;100900.56;;;34.59;24.18
42169;BME280;27838;43.858;25.974;2023-06-24T09:19:53;100898.81;;;34.68;23.82
42169;BME280;27838;43.858;25.974;2023-06-24T09:22:19;100897.81;;;34.69;22.77
42169;BME280;27838;43.858;25.974;2023-06-24T09:24:48;100892.56;;;34.68;23.13
42169;BME280;27838;43.858;25.974;2023-06-24T09:27:16;100889.16;;;34.66;23.17
42169;BME280;27838;43.858;25.974;2023-06-24T09:29:45;100885.13;;;34.70;23.67
42169;BME280;27838;43.858;25.974;2023-06-24T09:32:12;100891.41;;;34.70;23.73
42169;BME280;27838;43.858;25.974;2023-06-24T09:34:39;100887.09;;;34.77;23.88
42169;BME280;27838;43.858;25.974;2023-06-24T09:37:06;100889.19;;;34.84;22.91
42169;BME280;27838;43.858;25.974;2023-06-24T09:39:37;100880.06;;;34.85;22.71
42169;BME280;27838;43.858;25.974;2023-06-24T09:42:05;100894.72;;;35.00;23.48
42169;BME280;27838;43.858;25.974;2023-06-24T09:44:33;100893.97;;;35.08;23.28
42169;BME280;27838;43.858;25.974;2023-06-24T09:46:59;100886.38;;;35.11;23.12
42169;BME280;27838;43.858;25.974;2023-06-24T09:49:26;100891.41;;;35.24;23.41
42169;BME280;27838;43.858;25.974;2023-06-24T09:51:57;100891.94;;;35.28;23.35
42169;BME280;27838;43.858;25.974;2023-06-24T09:54:28;100892.28;;;35.25;23.39
42169;BME280;27838;43.858;25.974;2023-06-24T09:56:57;100901.78;;;35.29;23.53
42169;BME280;27838;43.858;25.974;2023-06-24T09:59:27;100894.50;;;35.29;23.10
42169;BME280;27838;43.858;25.974;2023-06-24T10:01:55;100881.50;;;35.33;23.33
42169;BME280;27838;43.858;25.974;2023-06-24T10:04:23;100886.97;;;35.41;23.94
42169;BME280;27838;43.858;25.974;2023-06-24T10:06:50;100878.91;;;35.49;23.91
42169;BME280;27838;43.858;25.974;2023-06-24T10:09:17;100872.69;;;35.57;23.63
42169;BME280;27838;43.858;25.974;2023-06-24T10:11:46;100884.13;;;35.69;24.15
42169;BME280;27838;43.858;25.974;2023-06-24T10:14:14;100877.38;;;35.73;23.45
42169;BME280;27838;43.858;25.974;2023-06-24T10:16:41;100882.81;;;35.73;23.74
42169;BME280;27838;43.858;25.974;2023-06-24T10:19:08;100881.31;;;35.79;23.75
42169;BME280;27838;43.858;25.974;2023-06-24T10:21:51;100874.44;;;35.92;23.97
42169;BME280;27838;43.858;25.974;2023-06-24T10:24:37;100868.38;;;35.99;24.05
42169;BME280;27838;43.858;25.974;2023-06-24T10:27:22;100880.31;;;36.14;24.23
42169;BME280;27838;43.858;25.974;2023-06-24T10:29:52;100879.94;;;36.17;23.95
42169;BME280;27838;43.858;25.974;2023-06-24T10:32:19;100874.22;;;36.20;24.33
42169;BME280;27838;43.858;25.974;2023-06-24T10:34:49;100872.91;;;36.24;23.89
42169;BME280;27838;43.858;25.974;2023-06-24T10:37:24;100874.28;;;36.28;23.84
42169;BME280;27838;43.858;25.974;2023-06-24T10:40:01;100876.31;;;36.35;24.24
42169;BME280;27838;43.858;25.974;2023-06-24T10:42:40;100869.19;;;36.34;24.45
42169;BME280;27838;43.858;25.974;2023-06-24T10:45:17;100868.19;;;36.43;24.15
42169;BME280;27838;43.858;25.974;2023-06-24T10:47:51;100863.44;;;36.45;24.03
42169;BME280;27838;43.858;25.974;2023-06-24T10:50:22;100867.72;;;36.47;23.98
42169;BME280;27838;43.858;25.974;2023-06-24T10:52:51;100857.00;;;36.46;24.14
42169;BME280;27838;43.858;25.974;2023-06-24T10:55:22;100857.34;;;36.43;24.28
42169;BME280;27838;43.858;25.974;2023-06-24T10:57:49;100852.94;;;36.42;23.96
42169;BME280;27838;43.858;25.974;2023-06-24T11:00:15;100862.78;;;36.43;24.43
42169;BME280;27838;43.858;25.974;2023-06-24T11:02:42;100846.81;;;36.40;24.09
42169;BME280;27838;43.858;25.974;2023-06-24T11:05:09;100849.38;;;36.41;23.88
42169;BME280;27838;43.858;25.974;2023-06-24T11:07:39;100837.66;;;36.41;24.43
42169;BME280;27838;43.858;25.974;2023-06-24T11:10:15;100852.94;;;36.42;24.32
42169;BME280;27838;43.858;25.974;2023-06-24T11:12:42;100835.13;;;36.47;24.01
42169;BME280;27838;43.858;25.974;2023-06-24T11:15:11;100834.63;;;36.52;24.24
42169;BME280;27838;43.858;25.974;2023-06-24T11:17:38;100840.72;;;36.46;23.50
42169;BME280;27838;43.858;25.974;2023-06-24T11:20:10;100843.41;;;36.38;24.16
42169;BME280;27838;43.858;25.974;2023-06-24T11:22:39;100833.25;;;36.32;23.50
42169;BME280;27838;43.858;25.974;2023-06-24T11:25:12;100836.31;;;36.37;23.88
42169;BME280;27838;43.858;25.974;2023-06-24T11:27:40;100828.50;;;36.34;24.05
42169;BME280;27838;43.858;25.974;2023-06-24T11:30:07;100835.31;;;36.46;23.74
42169;BME280;27838;43.858;25.974;2023-06-24T11:32:42;100835.66;;;36.51;23.65
42169;BME280;27838;43.858;25.974;2023-06-24T11:35:10;100842.75;;;36.52;23.77
42169;BME280;27838;43.858;25.974;2023-06-24T11:37:41;100827.50;;;36.51;23.48
42169;BME280;27838;43.858;25.974;2023-06-24T11:40:09;100833.44;;;36.55;23.85
42169;BME280;27838;43.858;25.974;2023-06-24T11:42:40;100824.13;;;36.49;23.62
42169;BME280;27838;43.858;25.974;2023-06-24T11:45:11;100829.03;;;36.54;23.36
42169;BME280;27838;43.858;25.974;2023-06-24T11:47:39;100823.09;;;36.58;23.63
42169;BME280;27838;43.858;25.974;2023-06-24T11:50:07;100815.13;;;36.57;23.96
42169;BME280;27838;43.858;25.974;2023-06-24T11:52:48;100808.53;;;36.59;23.84
42169;BME280;27838;43.858;25.974;2023-06-24T11:55:20;100806.13;;;36.56;23.61
42169;BME280;27838;43.858;25.974;2023-06-24T11:57:52;100805.63;;;36.53;23.56
42169;BME280;27838;43.858;25.974;2023-06-24T12:00:23;100803.75;;;36.53;23.82
42169;BME280;27838;43.858;25.974;2023-06-24T12:02:53;100802.53;;;36.31;23.90
42169;BME280;27838;43.858;25.974;2023-06-24T12:05:30;100793.88;;;36.27;24.17
42169;BME280;27838;43.858;25.974;2023-06-24T12:08:01;100789.84;;;36.32;24.64
42169;BME280;27838;43.858;25.974;2023-06-24T12:10:29;100777.63;;;36.36;24.27
42169;BME280;27838;43.858;25.974;2023-06-24T12:12:57;100776.97;;;36.42;23.94
42169;BME280;27838;43.858;25.974;2023-06-24T12:15:24;100768.47;;;36.45;24.17
42169;BME280;27838;43.858;25.974;2023-06-24T12:17:51;100778.97;;;36.48;24.22
42169;BME280;27838;43.858;25.974;2023-06-24T12:20:17;100775.25;;;36.49;24.21
42169;BME280;27838;43.858;25.974;2023-06-24T12:22:45;100762.69;;;36.48;23.96
42169;BME280;27838;43.858;25.974;2023-06-24T12:25:13;100757.97;;;36.42;24.15
42169;BME280;27838;43.858;25.974;2023-06-24T12:27:42;100759.13;;;36.39;23.77
42169;BME280;27838;43.858;25.974;2023-06-24T12:30:10;100749.31;;;36.38;23.91
42169;BME280;27838;43.858;25.974;2023-06-24T12:32:36;100761.34;;;36.44;24.37
42169;BME280;27838;43.858;25.974;2023-06-24T12:35:03;100754.53;;;36.40;24.24
42169;BME280;27838;43.858;25.974;2023-06-24T12:37:31;100751.81;;;36.40;24.10
42169;BME280;27838;43.858;25.974;2023-06-24T12:39:58;100747.09;;;36.42;24.18
42169;BME280;27838;43.858;25.974;2023-06-24T12:42:26;100744.03;;;36.28;24.01
42169;BME280;27838;43.858;25.974;2023-06-24T12:44:53;100738.59;;;36.20;24.06
42169;BME280;27838;43.858;25.974;2023-06-24T12:47:20;100729.06;;;36.16;24.85
42169;BME280;27838;43.858;25.974;2023-06-24T12:49:46;100734.88;;;36.21;24.75
42169;BME280;27838;43.858;25.974;2023-06-24T12:52:13;100727.50;;;36.14;24.30